AAL1404 MMSD-KPHX
Flight info
| Callsign | AAL1404 |
|---|---|
| Flight time | 1h 19m |
| Altitude | 36000 |
| Route | ANEGO1A ANEGO UT67 HMO J92 VYLLA DCT TUS DCT HOTTT PINNG1 |
| Aircraft | A320/M-SDE3FGHIRWY/LB1 |
Departure
| Time | 2026-04-25 22:35 |
|---|---|
| Airport | Los Cabos International Airport (MMSD) |
Arrival
| Time | 2026-04-25 23:54 |
|---|---|
| Airport | Phoenix Sky Harbor International Airport (KPHX) |
| Time | Latitude | Longitude | Altitude | Speed | Heading |
|---|---|---|---|---|---|
| 2026-04-25 22:19 | 23.15721 | -109.71778 | 368 ft | 0 kts | 85° |
| 2026-04-25 22:21 | 23.15721 | -109.71792 | 370 ft | 4 kts | 90° |
| 2026-04-25 22:22 | 23.15718 | -109.71814 | 368 ft | 4 kts | 73° |
| 2026-04-25 22:22 | 23.15705 | -109.71836 | 370 ft | 4 kts | 18° |
| 2026-04-25 22:22 | 23.15679 | -109.71839 | 368 ft | 3 kts | 353° |
| 2026-04-25 22:22 | 23.15671 | -109.71838 | 367 ft | 0 kts | 353° |
| 2026-04-25 22:26 | 23.15673 | -109.71838 | 367 ft | 2 kts | 353° |
| 2026-04-25 22:26 | 23.15695 | -109.71841 | 369 ft | 5 kts | 354° |
| 2026-04-25 22:26 | 23.15736 | -109.71845 | 371 ft | 7 kts | 354° |
| 2026-04-25 22:26 | 23.15790 | -109.71851 | 370 ft | 9 kts | 353° |
| 2026-04-25 22:27 | 23.15851 | -109.71859 | 371 ft | 8 kts | 354° |
| 2026-04-25 22:27 | 23.15895 | -109.71864 | 372 ft | 5 kts | 354° |
| 2026-04-25 22:27 | 23.15923 | -109.71868 | 373 ft | 3 kts | 354° |
| 2026-04-25 22:27 | 23.15947 | -109.71870 | 374 ft | 4 kts | 354° |
| 2026-04-25 22:28 | 23.15979 | -109.71873 | 374 ft | 6 kts | 354° |
| 2026-04-25 22:28 | 23.16030 | -109.71879 | 375 ft | 9 kts | 354° |
| 2026-04-25 22:28 | 23.16100 | -109.71886 | 377 ft | 11 kts | 354° |
| 2026-04-25 22:28 | 23.16167 | -109.71894 | 379 ft | 9 kts | 354° |
| 2026-04-25 22:29 | 23.16223 | -109.71900 | 380 ft | 7 kts | 354° |
| 2026-04-25 22:29 | 23.16274 | -109.71906 | 381 ft | 7 kts | 348° |
| 2026-04-25 22:29 | 23.16285 | -109.71951 | 381 ft | 6 kts | 263° |
| 2026-04-25 22:30 | 23.16339 | -109.71996 | 383 ft | 6 kts | 354° |
| 2026-04-25 22:30 | 23.16372 | -109.72000 | 383 ft | 3 kts | 354° |
| 2026-04-25 22:30 | 23.16393 | -109.72002 | 384 ft | 4 kts | 352° |
| 2026-04-25 22:30 | 23.16419 | -109.72006 | 384 ft | 7 kts | 354° |
| 2026-04-25 22:31 | 23.16494 | -109.72014 | 386 ft | 9 kts | 353° |
| 2026-04-25 22:31 | 23.16547 | -109.72021 | 387 ft | 6 kts | 352° |
| 2026-04-25 22:31 | 23.16563 | -109.72046 | 388 ft | 3 kts | 277° |
| 2026-04-25 22:31 | 23.16561 | -109.72074 | 388 ft | 3 kts | 263° |
| 2026-04-25 22:32 | 23.16559 | -109.72093 | 388 ft | 3 kts | 264° |
| 2026-04-25 22:32 | 23.16555 | -109.72138 | 388 ft | 7 kts | 264° |
| 2026-04-25 22:32 | 23.16554 | -109.72140 | 388 ft | 0 kts | 264° |
| 2026-04-25 22:33 | 23.16554 | -109.72145 | 388 ft | 3 kts | 264° |
| 2026-04-25 22:33 | 23.16551 | -109.72181 | 388 ft | 6 kts | 264° |
| 2026-04-25 22:33 | 23.16539 | -109.72219 | 389 ft | 6 kts | 229° |
| 2026-04-25 22:34 | 23.16471 | -109.72221 | 387 ft | 12 kts | 176° |
| 2026-04-25 22:34 | 23.16296 | -109.72203 | 383 ft | 58 kts | 173° |
| 2026-04-25 22:34 | 23.15609 | -109.72123 | 368 ft | 138 kts | 174° |
| 2026-04-25 22:34 | 23.14471 | -109.71999 | 623 ft | 177 kts | 172° |
| 2026-04-25 22:35 | 23.13230 | -109.71853 | 1465 ft | 179 kts | 173° |
| 2026-04-25 22:35 | 23.11994 | -109.71711 | 2380 ft | 179 kts | 174° |
| 2026-04-25 22:35 | 23.10723 | -109.71568 | 2790 ft | 193 kts | 174° |
| 2026-04-25 22:35 | 23.09310 | -109.71409 | 3018 ft | 215 kts | 174° |
| 2026-04-25 22:36 | 23.07752 | -109.71233 | 3311 ft | 235 kts | 174° |
| 2026-04-25 22:36 | 23.06038 | -109.71038 | 3623 ft | 259 kts | 174° |
| 2026-04-25 22:36 | 23.04196 | -109.71061 | 4165 ft | 271 kts | 197° |
| 2026-04-25 22:36 | 23.02602 | -109.72130 | 4886 ft | 275 kts | 232° |
| 2026-04-25 22:37 | 23.01834 | -109.73992 | 5668 ft | 273 kts | 266° |
| 2026-04-25 22:37 | 23.02148 | -109.75995 | 6407 ft | 274 kts | 298° |
| 2026-04-25 22:37 | 23.03305 | -109.77643 | 7130 ft | 277 kts | 314° |
| 2026-04-25 22:37 | 23.04656 | -109.79141 | 7878 ft | 279 kts | 314° |
| 2026-04-25 22:38 | 23.06021 | -109.80653 | 8581 ft | 282 kts | 314° |
| 2026-04-25 22:38 | 23.07404 | -109.82183 | 9292 ft | 286 kts | 314° |
| 2026-04-25 22:38 | 23.08777 | -109.83759 | 10015 ft | 289 kts | 309° |
| 2026-04-25 22:38 | 23.10006 | -109.85527 | 10448 ft | 302 kts | 303° |
| 2026-04-25 22:39 | 23.11195 | -109.87511 | 10588 ft | 325 kts | 301° |
| 2026-04-25 22:39 | 23.12564 | -109.89566 | 10738 ft | 346 kts | 310° |
| 2026-04-25 22:39 | 23.14371 | -109.91347 | 11201 ft | 356 kts | 323° |
| 2026-04-25 22:39 | 23.16477 | -109.92807 | 11786 ft | 360 kts | 327° |
| 2026-04-25 22:40 | 23.18626 | -109.94235 | 12384 ft | 364 kts | 327° |
| 2026-04-25 22:40 | 23.20804 | -109.95664 | 13004 ft | 367 kts | 327° |
| 2026-04-25 22:40 | 23.23003 | -109.97106 | 13608 ft | 371 kts | 327° |
| 2026-04-25 22:40 | 23.25222 | -109.98566 | 14154 ft | 374 kts | 327° |
| 2026-04-25 22:41 | 23.27457 | -110.00043 | 14703 ft | 377 kts | 327° |
| 2026-04-25 22:41 | 23.29705 | -110.01534 | 15223 ft | 380 kts | 327° |
| 2026-04-25 22:41 | 23.31941 | -110.03019 | 15742 ft | 383 kts | 327° |
| 2026-04-25 22:41 | 23.34222 | -110.04536 | 16274 ft | 386 kts | 326° |
| 2026-04-25 22:42 | 23.36520 | -110.06065 | 16807 ft | 389 kts | 326° |
| 2026-04-25 22:42 | 23.38835 | -110.07604 | 17328 ft | 391 kts | 326° |
| 2026-04-25 22:42 | 23.41172 | -110.09159 | 17867 ft | 395 kts | 326° |
| 2026-04-25 22:42 | 23.43522 | -110.10724 | 18367 ft | 397 kts | 326° |
| 2026-04-25 22:43 | 23.45891 | -110.12303 | 18839 ft | 400 kts | 326° |
| 2026-04-25 22:43 | 23.48271 | -110.13892 | 19327 ft | 402 kts | 326° |
| 2026-04-25 22:43 | 23.50661 | -110.15491 | 19813 ft | 404 kts | 326° |
| 2026-04-25 22:43 | 23.53043 | -110.17130 | 20285 ft | 405 kts | 321° |
| 2026-04-25 22:44 | 23.55199 | -110.19104 | 20741 ft | 404 kts | 312° |
| 2026-04-25 22:44 | 23.57195 | -110.21268 | 21204 ft | 406 kts | 312° |
| 2026-04-25 22:44 | 23.59205 | -110.23443 | 21657 ft | 408 kts | 312° |
| 2026-04-25 22:44 | 23.61226 | -110.25626 | 22102 ft | 410 kts | 312° |
| 2026-04-25 22:45 | 23.63258 | -110.27820 | 22513 ft | 412 kts | 312° |
| 2026-04-25 22:45 | 23.65305 | -110.30029 | 22925 ft | 415 kts | 311° |
| 2026-04-25 22:45 | 23.67359 | -110.32251 | 23346 ft | 417 kts | 311° |
| 2026-04-25 22:45 | 23.69420 | -110.34484 | 23714 ft | 419 kts | 311° |
| 2026-04-25 22:46 | 23.70818 | -110.36001 | 23941 ft | 420 kts | 311° |
| 2026-04-25 22:46 | 23.72892 | -110.38252 | 24272 ft | 422 kts | 311° |
| 2026-04-25 22:46 | 23.74979 | -110.40516 | 24599 ft | 423 kts | 311° |
| 2026-04-25 22:46 | 23.77071 | -110.42786 | 24927 ft | 425 kts | 311° |
| 2026-04-25 22:47 | 23.79172 | -110.45067 | 25249 ft | 426 kts | 311° |
| 2026-04-25 22:47 | 23.81248 | -110.47324 | 25562 ft | 428 kts | 311° |
| 2026-04-25 22:47 | 23.83367 | -110.49625 | 25873 ft | 430 kts | 311° |
| 2026-04-25 22:47 | 23.85490 | -110.51929 | 26194 ft | 431 kts | 311° |
| 2026-04-25 22:48 | 23.87659 | -110.54204 | 26497 ft | 435 kts | 315° |
| 2026-04-25 22:48 | 23.90127 | -110.56157 | 26798 ft | 442 kts | 324° |
| 2026-04-25 22:48 | 23.92906 | -110.57661 | 27090 ft | 450 kts | 334° |
| 2026-04-25 22:48 | 23.95881 | -110.58782 | 27374 ft | 454 kts | 336° |
| 2026-04-25 22:49 | 23.98880 | -110.59883 | 27652 ft | 455 kts | 336° |
| 2026-04-25 22:49 | 24.01893 | -110.60995 | 27923 ft | 457 kts | 336° |
| 2026-04-25 22:49 | 24.04925 | -110.62118 | 28190 ft | 458 kts | 336° |
| 2026-04-25 22:49 | 24.07949 | -110.63241 | 28445 ft | 460 kts | 336° |
| 2026-04-25 22:50 | 24.10983 | -110.64370 | 28693 ft | 461 kts | 335° |
| 2026-04-25 22:50 | 24.14028 | -110.65504 | 28932 ft | 463 kts | 335° |
| 2026-04-25 22:50 | 24.17079 | -110.66639 | 29195 ft | 463 kts | 335° |
| 2026-04-25 22:50 | 24.20119 | -110.67768 | 29531 ft | 461 kts | 335° |
| 2026-04-25 22:51 | 24.23160 | -110.68896 | 29864 ft | 460 kts | 335° |
| 2026-04-25 22:51 | 24.26190 | -110.70018 | 30167 ft | 459 kts | 335° |
| 2026-04-25 22:51 | 24.29212 | -110.71138 | 30461 ft | 458 kts | 335° |
| 2026-04-25 22:51 | 24.32224 | -110.72257 | 30778 ft | 456 kts | 335° |
| 2026-04-25 22:52 | 24.35218 | -110.73374 | 31114 ft | 454 kts | 334° |
| 2026-04-25 22:52 | 24.38206 | -110.74491 | 31388 ft | 453 kts | 334° |
| 2026-04-25 22:52 | 24.41186 | -110.75610 | 31668 ft | 452 kts | 334° |
| 2026-04-25 22:52 | 24.44156 | -110.76725 | 31995 ft | 450 kts | 334° |
| 2026-04-25 22:53 | 24.47114 | -110.77833 | 32316 ft | 448 kts | 334° |
| 2026-04-25 22:53 | 24.50062 | -110.78933 | 32613 ft | 447 kts | 334° |
| 2026-04-25 22:53 | 24.52966 | -110.80014 | 32902 ft | 446 kts | 334° |
| 2026-04-25 22:53 | 24.55898 | -110.81107 | 33193 ft | 444 kts | 334° |
| 2026-04-25 22:54 | 24.58824 | -110.82197 | 33475 ft | 444 kts | 333° |
| 2026-04-25 22:54 | 24.61740 | -110.83286 | 33791 ft | 442 kts | 333° |
| 2026-04-25 22:54 | 24.64646 | -110.84375 | 34071 ft | 441 kts | 333° |
| 2026-04-25 22:54 | 24.67544 | -110.85462 | 34327 ft | 440 kts | 333° |
| 2026-04-25 22:55 | 24.70444 | -110.86547 | 34569 ft | 439 kts | 333° |
| 2026-04-25 22:55 | 24.73337 | -110.87631 | 34804 ft | 439 kts | 333° |
| 2026-04-25 22:55 | 24.76222 | -110.88716 | 35038 ft | 438 kts | 333° |
| 2026-04-25 22:55 | 24.79100 | -110.89801 | 35261 ft | 437 kts | 333° |
| 2026-04-25 22:56 | 24.81978 | -110.90884 | 35485 ft | 437 kts | 333° |
| 2026-04-25 22:56 | 24.84855 | -110.91965 | 35701 ft | 436 kts | 332° |
| 2026-04-25 22:56 | 24.87724 | -110.93043 | 35855 ft | 436 kts | 332° |
| 2026-04-25 22:56 | 24.90602 | -110.94125 | 35895 ft | 437 kts | 332° |
| 2026-04-25 22:57 | 24.96359 | -110.96294 | 35883 ft | 437 kts | 332° |
| 2026-04-25 22:57 | 25.02124 | -110.98471 | 35890 ft | 437 kts | 332° |
| 2026-04-25 22:58 | 25.07887 | -111.00646 | 35887 ft | 437 kts | 332° |
| 2026-04-25 22:58 | 25.13644 | -111.02820 | 35891 ft | 437 kts | 332° |
| 2026-04-25 22:59 | 25.19391 | -111.04995 | 35894 ft | 437 kts | 332° |
| 2026-04-25 22:59 | 25.25142 | -111.07168 | 35914 ft | 437 kts | 332° |
| 2026-04-25 23:00 | 25.30900 | -111.09351 | 35916 ft | 437 kts | 332° |
| 2026-04-25 23:00 | 25.36641 | -111.11526 | 35897 ft | 436 kts | 332° |
| 2026-04-25 23:01 | 25.42373 | -111.13699 | 35897 ft | 436 kts | 332° |
| 2026-04-25 23:01 | 25.48110 | -111.15881 | 35897 ft | 436 kts | 332° |
| 2026-04-25 23:02 | 25.53854 | -111.18061 | 35893 ft | 437 kts | 332° |
| 2026-04-25 23:02 | 25.59600 | -111.20243 | 35898 ft | 436 kts | 332° |
| 2026-04-25 23:03 | 25.65335 | -111.22433 | 35900 ft | 436 kts | 331° |
| 2026-04-25 23:03 | 25.71072 | -111.24627 | 35911 ft | 437 kts | 332° |
| 2026-04-25 23:04 | 25.75851 | -111.26451 | 35923 ft | 437 kts | 332° |
| 2026-04-25 23:04 | 25.82530 | -111.28994 | 35942 ft | 436 kts | 332° |
| 2026-04-25 23:05 | 25.88262 | -111.31193 | 35953 ft | 436 kts | 331° |
| 2026-04-25 23:05 | 25.93990 | -111.33390 | 35966 ft | 436 kts | 332° |
| 2026-04-25 23:06 | 26.00063 | -111.34659 | 35953 ft | 458 kts | 349° |
| 2026-04-25 23:06 | 26.06515 | -111.34188 | 35953 ft | 466 kts | 355° |
| 2026-04-25 23:07 | 26.12981 | -111.33581 | 35938 ft | 466 kts | 355° |
| 2026-04-25 23:07 | 26.19447 | -111.32968 | 35925 ft | 466 kts | 355° |
| 2026-04-25 23:08 | 26.25907 | -111.32362 | 35908 ft | 466 kts | 355° |
| 2026-04-25 23:08 | 26.32373 | -111.31761 | 35892 ft | 466 kts | 355° |
| 2026-04-25 23:09 | 26.38832 | -111.31154 | 35886 ft | 466 kts | 355° |
| 2026-04-25 23:09 | 26.45297 | -111.30551 | 35888 ft | 466 kts | 355° |
| 2026-04-25 23:10 | 26.51759 | -111.29949 | 35888 ft | 466 kts | 355° |
| 2026-04-25 23:10 | 26.58219 | -111.29340 | 35888 ft | 466 kts | 355° |
| 2026-04-25 23:11 | 26.64685 | -111.28733 | 35886 ft | 466 kts | 355° |
| 2026-04-25 23:11 | 26.71148 | -111.28130 | 35888 ft | 466 kts | 355° |
| 2026-04-25 23:12 | 26.77612 | -111.27522 | 35887 ft | 466 kts | 355° |
| 2026-04-25 23:12 | 26.84070 | -111.26911 | 35888 ft | 466 kts | 355° |
| 2026-04-25 23:13 | 26.90524 | -111.26298 | 35885 ft | 465 kts | 355° |
| 2026-04-25 23:13 | 26.96972 | -111.25692 | 35878 ft | 465 kts | 355° |
| 2026-04-25 23:14 | 27.03418 | -111.25085 | 35877 ft | 465 kts | 355° |
| 2026-04-25 23:14 | 27.09826 | -111.24480 | 35873 ft | 465 kts | 355° |
| 2026-04-25 23:15 | 27.16280 | -111.23868 | 35873 ft | 465 kts | 355° |
| 2026-04-25 23:15 | 27.22732 | -111.23257 | 35882 ft | 465 kts | 355° |
| 2026-04-25 23:16 | 27.29183 | -111.22641 | 35875 ft | 465 kts | 355° |
| 2026-04-25 23:16 | 27.35634 | -111.22027 | 35886 ft | 466 kts | 355° |
| 2026-04-25 23:17 | 27.42095 | -111.21407 | 35883 ft | 466 kts | 355° |
| 2026-04-25 23:17 | 27.48552 | -111.20790 | 35897 ft | 466 kts | 355° |
| 2026-04-25 23:18 | 27.55017 | -111.20180 | 35892 ft | 465 kts | 355° |
| 2026-04-25 23:18 | 27.61475 | -111.19562 | 35896 ft | 466 kts | 355° |
| 2026-04-25 23:19 | 27.67937 | -111.18940 | 35897 ft | 466 kts | 355° |
| 2026-04-25 23:19 | 27.74362 | -111.18327 | 35899 ft | 466 kts | 355° |
| 2026-04-25 23:20 | 27.80824 | -111.17713 | 35903 ft | 465 kts | 355° |
| 2026-04-25 23:20 | 27.87293 | -111.17092 | 35908 ft | 466 kts | 355° |
| 2026-04-25 23:21 | 27.93753 | -111.16467 | 35910 ft | 466 kts | 355° |
| 2026-04-25 23:21 | 28.16449 | -111.14279 | 35900 ft | 466 kts | 355° |
| 2026-04-25 23:22 | 28.42331 | -111.11756 | 35879 ft | 466 kts | 355° |
| 2026-04-25 23:23 | 28.81125 | -111.07988 | 35865 ft | 465 kts | 354° |
| 2026-04-25 23:23 | 29.06510 | -111.05506 | 35866 ft | 467 kts | 354° |
| 2026-04-25 23:24 | 29.31800 | -111.04252 | 35877 ft | 473 kts | 351° |
| 2026-04-25 23:24 | 29.38424 | -111.03945 | 35846 ft | 478 kts | 352° |
| 2026-04-25 23:25 | 29.45073 | -111.03625 | 35845 ft | 478 kts | 352° |
| 2026-04-25 23:25 | 29.51715 | -111.03317 | 35841 ft | 478 kts | 352° |
| 2026-04-25 23:26 | 29.58360 | -111.03021 | 35844 ft | 478 kts | 351° |
| 2026-04-25 23:26 | 29.65013 | -111.02728 | 35848 ft | 478 kts | 351° |
| 2026-04-25 23:27 | 29.82235 | -111.01952 | 35840 ft | 479 kts | 351° |
| 2026-04-25 23:27 | 30.04426 | -111.00958 | 35842 ft | 480 kts | 351° |
| 2026-04-25 23:28 | 30.31139 | -110.99757 | 35826 ft | 482 kts | 351° |
| 2026-04-25 23:28 | 30.58004 | -110.98501 | 35837 ft | 483 kts | 351° |
| 2026-04-25 23:29 | 30.84879 | -110.97191 | 35833 ft | 483 kts | 351° |
| 2026-04-25 23:29 | 31.11746 | -110.95981 | 35877 ft | 482 kts | 351° |
| 2026-04-25 23:30 | 31.38555 | -110.94739 | 36008 ft | 482 kts | 350° |
| 2026-04-25 23:30 | 31.65391 | -110.93527 | 35912 ft | 483 kts | 350° |
| 2026-04-25 23:31 | 31.84629 | -110.92636 | 35867 ft | 485 kts | 350° |
| 2026-04-25 23:31 | 31.91376 | -110.92329 | 35888 ft | 485 kts | 350° |
| 2026-04-25 23:32 | 31.98129 | -110.92017 | 35914 ft | 486 kts | 350° |
| 2026-04-25 23:32 | 32.04886 | -110.91708 | 35934 ft | 486 kts | 350° |
| 2026-04-25 23:33 | 32.11525 | -110.92007 | 35198 ft | 469 kts | 338° |
| 2026-04-25 23:33 | 32.14702 | -110.92818 | 34112 ft | 469 kts | 334° |
| 2026-04-25 23:33 | 32.17900 | -110.93721 | 32923 ft | 475 kts | 334° |
| 2026-04-25 23:33 | 32.21116 | -110.94623 | 31694 ft | 476 kts | 335° |
| 2026-04-25 23:34 | 32.24337 | -110.95513 | 30825 ft | 475 kts | 335° |
| 2026-04-25 23:34 | 32.27563 | -110.96390 | 29854 ft | 476 kts | 336° |
| 2026-04-25 23:34 | 32.30799 | -110.97263 | 28722 ft | 477 kts | 336° |
| 2026-04-25 23:34 | 32.34034 | -110.98132 | 27739 ft | 476 kts | 337° |
| 2026-04-25 23:35 | 32.37231 | -110.98984 | 27170 ft | 465 kts | 337° |
| 2026-04-25 23:35 | 32.40372 | -110.99822 | 26489 ft | 459 kts | 337° |
| 2026-04-25 23:35 | 32.43463 | -111.00656 | 25829 ft | 454 kts | 337° |
| 2026-04-25 23:35 | 32.46487 | -111.01481 | 25193 ft | 449 kts | 337° |
| 2026-04-25 23:36 | 32.49497 | -111.02304 | 24955 ft | 435 kts | 336° |
| 2026-04-25 23:36 | 32.52288 | -111.03281 | 24476 ft | 405 kts | 328° |
| 2026-04-25 23:36 | 32.54759 | -111.04721 | 24106 ft | 387 kts | 319° |
| 2026-04-25 23:36 | 32.57007 | -111.06426 | 23842 ft | 382 kts | 317° |
| 2026-04-25 23:37 | 32.59244 | -111.08119 | 23356 ft | 380 kts | 318° |
| 2026-04-25 23:37 | 32.61477 | -111.09790 | 22797 ft | 379 kts | 318° |
| 2026-04-25 23:37 | 32.63687 | -111.11437 | 22482 ft | 370 kts | 318° |
| 2026-04-25 23:37 | 32.65849 | -111.13047 | 22063 ft | 365 kts | 318° |
| 2026-04-25 23:38 | 32.67997 | -111.14656 | 21581 ft | 363 kts | 318° |
| 2026-04-25 23:38 | 32.70127 | -111.16253 | 21053 ft | 359 kts | 318° |
| 2026-04-25 23:38 | 32.72228 | -111.17834 | 20339 ft | 358 kts | 318° |
| 2026-04-25 23:38 | 32.74186 | -111.19579 | 19862 ft | 347 kts | 309° |
| 2026-04-25 23:39 | 32.75781 | -111.21668 | 19404 ft | 336 kts | 298° |
| 2026-04-25 23:39 | 32.77078 | -111.23936 | 18957 ft | 332 kts | 296° |
| 2026-04-25 23:39 | 32.78363 | -111.26220 | 18514 ft | 331 kts | 297° |
| 2026-04-25 23:39 | 32.79650 | -111.28497 | 18049 ft | 331 kts | 297° |
| 2026-04-25 23:40 | 32.80932 | -111.30762 | 17571 ft | 330 kts | 297° |
| 2026-04-25 23:40 | 32.82210 | -111.33018 | 17196 ft | 327 kts | 297° |
| 2026-04-25 23:40 | 32.83481 | -111.35261 | 16863 ft | 326 kts | 297° |
| 2026-04-25 23:40 | 32.84747 | -111.37501 | 16429 ft | 325 kts | 297° |
| 2026-04-25 23:41 | 32.86005 | -111.39739 | 15993 ft | 324 kts | 297° |
| 2026-04-25 23:41 | 32.87256 | -111.41968 | 15545 ft | 324 kts | 297° |
| 2026-04-25 23:41 | 32.88489 | -111.44165 | 15168 ft | 322 kts | 298° |
| 2026-04-25 23:41 | 32.89715 | -111.46343 | 15043 ft | 312 kts | 298° |
| 2026-04-25 23:42 | 32.91127 | -111.48282 | 14891 ft | 311 kts | 312° |
| 2026-04-25 23:42 | 32.92938 | -111.49730 | 14504 ft | 321 kts | 328° |
| 2026-04-25 23:42 | 32.95007 | -111.50737 | 14211 ft | 320 kts | 332° |
| 2026-04-25 23:42 | 32.97059 | -111.51715 | 13717 ft | 316 kts | 332° |
| 2026-04-25 23:43 | 32.99093 | -111.52701 | 13014 ft | 315 kts | 332° |
| 2026-04-25 23:43 | 33.01109 | -111.53686 | 12388 ft | 311 kts | 332° |
| 2026-04-25 23:43 | 33.03123 | -111.54673 | 11974 ft | 311 kts | 332° |
| 2026-04-25 23:43 | 33.05089 | -111.55633 | 11849 ft | 299 kts | 332° |
| 2026-04-25 23:44 | 33.06972 | -111.56549 | 11565 ft | 289 kts | 332° |
| 2026-04-25 23:44 | 33.08817 | -111.57455 | 11321 ft | 285 kts | 331° |
| 2026-04-25 23:44 | 33.10650 | -111.58362 | 11016 ft | 285 kts | 331° |
| 2026-04-25 23:44 | 33.12482 | -111.59272 | 10711 ft | 284 kts | 331° |
| 2026-04-25 23:45 | 33.14311 | -111.60184 | 10316 ft | 284 kts | 331° |
| 2026-04-25 23:45 | 33.16118 | -111.61081 | 9825 ft | 280 kts | 332° |
| 2026-04-25 23:45 | 33.17903 | -111.61966 | 9348 ft | 276 kts | 332° |
| 2026-04-25 23:45 | 33.19685 | -111.62849 | 8945 ft | 277 kts | 332° |
| 2026-04-25 23:46 | 33.21405 | -111.63698 | 8874 ft | 264 kts | 332° |
| 2026-04-25 23:46 | 33.23063 | -111.64516 | 8782 ft | 253 kts | 331° |
| 2026-04-25 23:46 | 33.24664 | -111.65391 | 8447 ft | 252 kts | 329° |
| 2026-04-25 23:46 | 33.26236 | -111.66314 | 8086 ft | 252 kts | 328° |
| 2026-04-25 23:47 | 33.27801 | -111.67250 | 7761 ft | 251 kts | 328° |
| 2026-04-25 23:47 | 33.29354 | -111.68178 | 7445 ft | 248 kts | 328° |
| 2026-04-25 23:47 | 33.30897 | -111.69094 | 7138 ft | 246 kts | 328° |
| 2026-04-25 23:47 | 33.32424 | -111.69996 | 6832 ft | 245 kts | 329° |
| 2026-04-25 23:48 | 33.33952 | -111.70895 | 6527 ft | 244 kts | 329° |
| 2026-04-25 23:48 | 33.35473 | -111.71788 | 6217 ft | 242 kts | 329° |
| 2026-04-25 23:48 | 33.36984 | -111.72676 | 5902 ft | 242 kts | 330° |
| 2026-04-25 23:48 | 33.38487 | -111.73556 | 5568 ft | 240 kts | 331° |
| 2026-04-25 23:49 | 33.39980 | -111.74427 | 5270 ft | 238 kts | 331° |
| 2026-04-25 23:49 | 33.41462 | -111.75290 | 4990 ft | 235 kts | 331° |
| 2026-04-25 23:49 | 33.42911 | -111.76154 | 4751 ft | 231 kts | 326° |
| 2026-04-25 23:49 | 33.43937 | -111.77517 | 4498 ft | 219 kts | 287° |
| 2026-04-25 23:50 | 33.44078 | -111.79267 | 4319 ft | 209 kts | 268° |
| 2026-04-25 23:50 | 33.44054 | -111.80998 | 4111 ft | 206 kts | 269° |
| 2026-04-25 23:50 | 33.44048 | -111.82695 | 3816 ft | 201 kts | 269° |
| 2026-04-25 23:50 | 33.44051 | -111.84343 | 3555 ft | 195 kts | 269° |
| 2026-04-25 23:51 | 33.44055 | -111.85907 | 3314 ft | 180 kts | 270° |
| 2026-04-25 23:51 | 33.44059 | -111.87333 | 3078 ft | 163 kts | 268° |
| 2026-04-25 23:51 | 33.44062 | -111.88625 | 2880 ft | 149 kts | 269° |
| 2026-04-25 23:51 | 33.44065 | -111.89848 | 2694 ft | 145 kts | 269° |
| 2026-04-25 23:52 | 33.44067 | -111.91032 | 2507 ft | 140 kts | 269° |
| 2026-04-25 23:52 | 33.44069 | -111.92206 | 2334 ft | 141 kts | 271° |
| 2026-04-25 23:52 | 33.44072 | -111.93368 | 2147 ft | 139 kts | 268° |
| 2026-04-25 23:52 | 33.44073 | -111.94525 | 1960 ft | 140 kts | 269° |
| 2026-04-25 23:53 | 33.44076 | -111.95696 | 1785 ft | 140 kts | 269° |
| 2026-04-25 23:53 | 33.44078 | -111.96852 | 1592 ft | 139 kts | 267° |
| 2026-04-25 23:53 | 33.44078 | -111.98008 | 1429 ft | 138 kts | 269° |
| 2026-04-25 23:53 | 33.44087 | -111.99173 | 1202 ft | 140 kts | 266° |
| 2026-04-25 23:54 | 33.44082 | -112.00289 | 1125 ft | 123 kts | 267° |
| 2026-04-25 23:54 | 33.44075 | -112.01127 | 1126 ft | 62 kts | 272° |
| 2026-04-25 23:54 | 33.44064 | -112.01331 | 1119 ft | 15 kts | 235° |
| 2026-04-25 23:54 | 33.43979 | -112.01336 | 1121 ft | 13 kts | 126° |
| 2026-04-25 23:55 | 33.43975 | -112.01249 | 1125 ft | 8 kts | 89° |
| 2026-04-25 23:55 | 33.43975 | -112.01184 | 1123 ft | 7 kts | 90° |
| 2026-04-25 23:55 | 33.43974 | -112.01128 | 1123 ft | 7 kts | 90° |
| 2026-04-25 23:55 | 33.43974 | -112.01046 | 1118 ft | 13 kts | 90° |
| 2026-04-25 23:56 | 33.43974 | -112.00917 | 1119 ft | 18 kts | 90° |
| 2026-04-25 23:56 | 33.43973 | -112.00759 | 1124 ft | 16 kts | 90° |